createdAt,value
2023-03-23T15:58:23.165Z,1.40
2023-03-23T16:00:55.375Z,1.33
2023-03-23T16:03:46.182Z,1.20
2023-03-23T16:06:24.280Z,1.30
2023-03-23T16:09:00.019Z,1.25
2023-03-23T16:11:33.186Z,1.13
2023-03-23T16:14:04.029Z,1.10
2023-03-23T16:16:43.735Z,1.10
2023-03-23T16:19:18.474Z,1.08
2023-03-23T16:21:49.262Z,1.40
2023-03-23T16:24:19.611Z,1.45
2023-03-23T16:26:49.910Z,1.60
2023-03-23T16:29:37.060Z,1.30
2023-03-23T16:32:10.835Z,1.10
2023-03-23T16:34:41.181Z,1.00
2023-03-23T16:37:14.231Z,1.45
2023-03-23T16:39:45.120Z,1.48
2023-03-23T16:42:15.603Z,1.27
2023-03-23T16:44:46.069Z,1.10
2023-03-23T16:47:17.657Z,1.10
2023-03-23T16:49:48.284Z,1.00
2023-03-23T16:52:18.706Z,1.00
2023-03-23T16:54:50.563Z,1.20
2023-03-23T16:57:21.275Z,1.30
2023-03-23T16:59:51.486Z,1.00
2023-03-23T17:02:21.983Z,0.98
2023-03-23T17:04:52.488Z,1.00
2023-03-23T17:07:22.789Z,0.80
2023-03-23T17:09:53.428Z,1.27
2023-03-23T17:12:24.475Z,1.10
2023-03-23T17:14:54.715Z,0.85
2023-03-23T17:17:27.431Z,1.48
2023-03-23T17:19:58.669Z,0.80
2023-03-23T17:22:30.094Z,1.02
2023-03-23T17:25:01.126Z,1.02
2023-03-23T17:27:32.043Z,0.90
2023-03-23T17:30:03.174Z,1.13
2023-03-23T17:32:33.964Z,0.73
2023-03-23T17:35:07.906Z,0.95
2023-03-23T17:37:39.583Z,1.25
2023-03-23T17:40:11.925Z,0.90
2023-03-23T17:42:43.276Z,0.77
2023-03-23T17:45:13.880Z,1.10
2023-03-23T17:47:44.221Z,1.13
2023-03-23T17:50:15.023Z,0.70
2023-03-23T17:52:45.847Z,0.80
2023-03-23T17:55:17.454Z,0.50
2023-03-23T17:57:48.375Z,0.85
2023-03-23T18:00:20.818Z,0.70
2023-03-23T18:02:51.815Z,1.00
2023-03-23T18:05:22.544Z,1.00
2023-03-23T18:07:53.526Z,0.82
2023-03-23T18:10:23.908Z,0.80
2023-03-23T18:12:54.550Z,1.30
2023-03-23T18:15:28.291Z,1.05
2023-03-23T18:17:59.803Z,0.63
2023-03-23T18:20:30.912Z,0.90
2023-03-23T18:23:03.211Z,1.05
2023-03-23T18:25:35.341Z,0.85
2023-03-23T18:28:08.295Z,0.60
2023-03-23T18:30:38.593Z,0.82
2023-03-23T18:33:09.489Z,0.75
2023-03-23T18:35:41.956Z,0.93
2023-03-23T18:38:14.569Z,1.08
2023-03-23T18:40:50.134Z,1.00
2023-03-23T18:43:21.431Z,0.95
2023-03-23T18:45:53.903Z,1.02
2023-03-23T18:48:26.186Z,0.75
2023-03-23T18:50:59.939Z,0.93
2023-03-23T18:53:31.373Z,1.20
2023-03-23T18:56:17.668Z,0.95
2023-03-23T18:58:48.695Z,1.20
2023-03-23T19:01:20.546Z,0.73
2023-03-23T19:03:51.931Z,0.90
2023-03-23T19:06:28.199Z,1.33
2023-03-23T19:09:02.315Z,0.75
2023-03-23T19:11:34.665Z,0.95
2023-03-23T19:14:06.587Z,0.90
2023-03-23T19:16:38.706Z,0.65
2023-03-23T19:19:14.260Z,0.70
2023-03-23T19:21:46.976Z,0.80
2023-03-23T19:24:17.885Z,0.75
2023-03-23T19:26:49.527Z,1.13
2023-03-23T19:29:26.571Z,0.75
2023-03-23T19:31:58.999Z,0.80
2023-03-23T19:34:31.539Z,0.68
2023-03-23T19:37:05.981Z,0.95
2023-03-23T19:39:39.945Z,0.95
2023-03-23T19:42:11.849Z,1.00
2023-03-23T19:44:43.907Z,1.17
2023-03-23T19:47:14.687Z,0.85
2023-03-23T19:49:45.098Z,0.70
2023-03-23T19:52:17.699Z,0.73
2023-03-23T19:54:49.203Z,1.02
2023-03-23T19:57:20.068Z,0.88
2023-03-23T19:59:50.485Z,0.75
2023-03-23T20:02:20.916Z,0.95
2023-03-23T20:04:51.741Z,0.88
2023-03-23T20:07:25.552Z,0.75
2023-03-23T20:09:57.510Z,1.00
2023-03-23T20:12:28.522Z,0.73
2023-03-23T20:15:00.629Z,0.88
2023-03-23T20:17:31.103Z,0.82
2023-03-23T20:20:01.782Z,1.05
2023-03-23T20:22:32.630Z,0.90
2023-03-23T20:25:03.651Z,0.80
2023-03-23T20:27:33.939Z,1.20
2023-03-23T20:30:05.008Z,0.90
2023-03-23T20:32:35.959Z,1.30
2023-03-23T20:35:12.378Z,0.90
2023-03-23T20:37:43.452Z,1.10
2023-03-23T20:40:16.695Z,1.05
2023-03-23T20:42:47.200Z,0.88
2023-03-23T20:45:18.126Z,1.25
2023-03-23T20:47:48.779Z,0.90
2023-03-23T20:50:19.193Z,1.17
2023-03-23T20:52:50.369Z,1.52
2023-03-23T20:55:20.977Z,1.30
2023-03-23T20:57:51.992Z,1.55
2023-03-23T21:00:22.368Z,1.20
2023-03-23T21:02:55.701Z,1.23
2023-03-23T21:05:26.479Z,2.17
2023-03-23T21:08:00.720Z,1.20
2023-03-23T21:10:32.319Z,1.42
2023-03-23T21:13:02.797Z,1.35
2023-03-23T21:15:34.152Z,1.50
2023-03-23T21:18:04.753Z,1.20
2023-03-23T21:20:38.647Z,1.63
2023-03-23T21:23:09.878Z,1.90
2023-03-23T21:25:44.165Z,1.73
2023-03-23T21:28:15.499Z,2.45
2023-03-23T21:30:47.416Z,1.38
2023-03-23T21:33:18.778Z,1.45
2023-03-23T21:35:50.462Z,1.90
2023-03-23T21:38:32.380Z,2.20
2023-03-23T21:41:11.585Z,1.98
2023-03-23T21:43:43.691Z,1.67
2023-03-23T21:46:20.056Z,1.88
2023-03-23T21:48:55.678Z,1.63
2023-03-23T21:51:32.817Z,1.65
2023-03-23T21:56:36.151Z,1.90
2023-03-23T21:59:09.436Z,1.73
2023-03-23T22:01:40.383Z,1.45
2023-03-23T22:04:12.534Z,1.50
2023-03-23T22:06:44.495Z,1.25
2023-03-23T22:09:16.335Z,1.13
2023-03-23T22:11:47.043Z,1.08
2023-03-23T22:14:19.067Z,1.13
2023-03-23T22:16:49.854Z,1.10
2023-03-23T22:19:20.817Z,0.90
2023-03-23T22:21:51.541Z,1.10
2023-03-23T22:24:22.278Z,0.70
2023-03-23T22:26:55.127Z,0.85
2023-03-23T22:29:27.509Z,1.02
2023-03-23T22:31:58.653Z,1.13
2023-03-23T22:34:29.551Z,0.98
2023-03-23T22:37:00.225Z,1.23
2023-03-23T22:39:31.048Z,1.02
2023-03-23T22:42:02.108Z,1.35
2023-03-23T22:44:33.076Z,0.90
2023-03-23T22:47:04.008Z,1.25
2023-03-23T22:49:35.160Z,1.25
2023-03-23T22:52:07.069Z,1.45
2023-03-23T22:54:37.872Z,1.13
2023-03-23T22:57:09.850Z,1.23
2023-03-23T22:59:40.849Z,1.55
2023-03-23T23:02:13.583Z,1.27
2023-03-23T23:04:45.105Z,1.20
2023-03-23T23:07:17.548Z,1.80
2023-03-23T23:09:48.641Z,1.40
2023-03-23T23:12:22.348Z,1.13
2023-03-23T23:14:53.356Z,1.55
2023-03-23T23:17:25.167Z,1.45
2023-03-23T23:19:57.237Z,1.60
2023-03-23T23:22:30.251Z,1.70
2023-03-23T23:25:00.928Z,1.60
2023-03-23T23:27:32.804Z,1.45
2023-03-23T23:30:03.905Z,1.55
2023-03-23T23:32:35.807Z,1.23
2023-03-23T23:35:09.359Z,1.73
2023-03-23T23:37:40.355Z,1.27
2023-03-23T23:40:11.418Z,1.38
2023-03-23T23:42:41.937Z,1.88
2023-03-23T23:45:12.684Z,1.48
2023-03-23T23:47:45.514Z,1.80
2023-03-23T23:50:17.632Z,1.88
2023-03-23T23:52:52.247Z,1.40
2023-03-23T23:55:23.786Z,1.70
2023-03-23T23:57:55.063Z,1.45
